Viking Sky — LAYU7 — position and weather

sailwx.info

Track history (hours):
 
Tides and Currents Weather Stations Pressure Air Temp Water Temp Dewpoint Dewpoint Depression Visibility Wind Speed Wind Dir Waves Ship Positions

Viking Sky

Last reported at 2020-Mar-29 13:26 UTC. Time now 2020-Mar-29 14:28 UTC.
Position N 26°08' W 080°04'.

Length 228 m; draft 6.7 m.

Type: Passenger vessel. MMSI: 259186000.

Date/timePositionNaut miles runAvg speedWind from/ knotsBaromVisibWave heightAir tempDewpointWater temp
2020-Mar-29 13:26N 26°08' W 080°04'0 0.0
2020-Mar-29 12:56N 26°08' W 080°04'0 0.0
2020-Mar-29 12:26N 26°08' W 080°04'0 0.0
2020-Mar-29 11:29N 26°08' W 080°04'0 0.0
2020-Mar-29 08:59N 26°08' W 080°04'0 0.0
2020-Mar-29 03:26N 26°08' W 080°04'0 0.0
2020-Mar-29 02:29N 26°08' W 080°04'0 0.0
2020-Mar-28 23:59N 26°08' W 080°04'0 0.0
2020-Mar-28 23:29N 26°08' W 080°04'0 0.0
2020-Mar-28 20:59N 26°08' W 080°04'0 0.0
2020-Mar-28 19:29N 26°08' W 080°04'0 0.0
2020-Mar-28 15:29N 26°08' W 080°04'0 0.0
2020-Mar-28 12:29N 26°08' W 080°04'0 0.0
2020-Mar-28 11:59N 26°08' W 080°04'0 0.0
2020-Mar-28 11:29N 26°08' W 080°04'0 0.0
2020-Mar-28 08:29N 26°08' W 080°04'0 0.0
2020-Mar-28 06:29N 26°08' W 080°04'0 0.0
2020-Mar-28 05:59N 26°08' W 080°04'0 0.0
2020-Mar-28 02:59N 26°08' W 080°04'0 0.0
2020-Mar-28 02:29N 26°08' W 080°04'0 0.0
2020-Mar-28 01:59N 26°08' W 080°04'0 0.0
2020-Mar-28 00:59N 26°08' W 080°04'0 0.0
2020-Mar-27 22:29N 26°08' W 080°04'0 0.0
2020-Mar-27 21:29N 26°08' W 080°04'0 0.0
2020-Mar-27 16:59N 26°08' W 080°04'0 0.0
2020-Mar-27 16:29N 26°08' W 080°04'0 0.0
2020-Mar-27 15:59N 26°08' W 080°04'0 0.0
2020-Mar-27 14:59N 26°08' W 080°04'0 0.0
2020-Mar-27 13:29N 26°08' W 080°04'0 0.0
2020-Mar-27 12:26N 26°08' W 080°04'0 0.0
2020-Mar-27 11:59N 26°08' W 080°04'0 0.0
2020-Mar-27 10:29N 26°08' W 080°04'0 0.0
2020-Mar-27 09:53N 26°08' W 080°04'0 0.0
2020-Mar-27 07:59N 26°08' W 080°04'0 0.0
2020-Mar-27 05:59N 26°08' W 080°04'0 0.0
2020-Mar-27 03:29N 26°08' W 080°04'0 0.0
2020-Mar-26 21:29N 26°08' W 080°04'0 0.0
2020-Mar-26 20:53N 26°08' W 080°04'0 0.0
2020-Mar-26 17:59N 26°08' W 080°04'0 0.0
2020-Mar-26 17:29N 26°08' W 080°04'0 0.0
2020-Mar-26 14:59N 26°08' W 080°04'0 0.0
2020-Mar-26 13:29N 26°08' W 080°04'0 0.0
2020-Mar-26 10:59N 26°08' W 080°04'0 0.0
2020-Mar-26 09:59N 26°08' W 080°04'0 0.1
2020-Mar-26 09:29N 26°08' W 080°04'0 0.0
2020-Mar-26 07:59N 26°08' W 080°04'0 0.1
2020-Mar-26 07:29N 26°08' W 080°04'0 0.2
2020-Mar-26 06:56N 26°08' W 080°04'0 0.2
2020-Mar-26 06:29N 26°08' W 080°04'0 0.1
2020-Mar-26 05:59N 26°08' W 080°04'0 0.0
2020-Mar-26 05:29N 26°08' W 080°04'0 0.0
2020-Mar-26 04:29N 26°08' W 080°04'0 0.0
2020-Mar-26 03:29N 26°08' W 080°04'0 0.0
2020-Mar-25 22:59N 26°08' W 080°04'0 0.0
2020-Mar-25 20:26N 26°08' W 080°04'0 0.0
2020-Mar-25 15:29N 26°08' W 080°04'0 0.0
2020-Mar-25 13:26N 26°08' W 080°04'0 0.0
2020-Mar-25 12:59N 26°08' W 080°04'0 0.0
2020-Mar-25 10:29N 26°08' W 080°04'0 0.0
2020-Mar-25 08:29N 26°08' W 080°04'0 0.0
2020-Mar-25 07:59N 26°08' W 080°04'0 0.0
2020-Mar-25 05:29N 26°08' W 080°04'0 0.0
2020-Mar-25 01:29N 26°08' W 080°04'0 0.1
2020-Mar-25 00:59N 26°08' W 080°04'0 0.1
2020-Mar-25 00:29N 26°08' W 080°04'0 0.0
2020-Mar-24 22:56N 26°08' W 080°04'0 0.0
2020-Mar-24 21:29N 26°08' W 080°04'0 0.0
2020-Mar-24 19:59N 26°08' W 080°04'0 0.0
2020-Mar-24 19:29N 26°08' W 080°04'0 0.1
2020-Mar-24 18:59N 26°08' W 080°04'0 0.0
2020-Mar-24 17:30N 26°08' W 080°04'2 3.7
2020-Mar-24 17:00N 26°08' W 080°02'13 8.4
2020-Mar-24 15:30N 26°10' W 079°48'6 3.8
2020-Mar-24 14:00N 26°06' W 079°52'612.1
2020-Mar-24 13:30N 26°06' W 079°59'510.8
2020-Mar-24 13:01N 26°06' W 080°05'2 0.6
2020-Mar-24 10:00N 26°05' W 080°07'0 0.0
2020-Mar-24 08:30N 26°05' W 080°07'0 0.0
2020-Mar-24 07:54N 26°05' W 080°07'0 0.0
2020-Mar-24 07:30N 26°05' W 080°07'0 0.0
2020-Mar-24 05:24N 26°05' W 080°07'0 0.0
2020-Mar-24 04:24N 26°05' W 080°07'0 0.0
2020-Mar-24 01:30N 26°05' W 080°07'0 0.0
2020-Mar-24 00:30N 26°05' W 080°07'0 0.0
2020-Mar-23 23:30N 26°05' W 080°07'0 0.0
2020-Mar-23 21:00N 26°05' W 080°07'0 0.0
2020-Mar-23 19:30N 26°05' W 080°07'0 0.0
2020-Mar-23 13:27N 26°05' W 080°07'0 0.0
2020-Mar-23 12:57N 26°05' W 080°07'1 0.4
2020-Mar-23 11:30N 26°06' W 080°07'4 9.0
2020-Mar-23 11:01N 26°06' W 080°02'15 9.9
2020-Mar-23 09:30N 25°60' W 079°47'2013.2
2020-Mar-23 08:00N 25°40' W 079°50'10 4.1
2020-Mar-23 05:30N 25°50' W 079°52'6 6.0
2020-Mar-23 04:30N 25°56' W 079°52'12 5.9
2020-Mar-23 02:30N 26°08' W 079°53'611.9
2020-Mar-23 02:00N 26°08' W 079°60'4 7.2
2020-Mar-23 01:29N 26°08' W 080°04'0 0.1
2020-Mar-22 23:50N 26°08' W 080°04'0 0.0
2020-Mar-22 22:26N 26°08' W 080°04'0 0.1
2020-Mar-22 21:59N 26°08' W 080°04'0 0.0
2020-Mar-22 19:59N 26°08' W 080°04'0 0.0
2020-Mar-22 19:22N 26°08' W 080°04'0 0.0
2020-Mar-22 18:25N 26°08' W 080°04'0 0.0
2020-Mar-22 17:29N 26°08' W 080°04'0 0.0
2020-Mar-22 15:58N 26°08' W 080°04'0 0.0
2020-Mar-22 11:59N 26°08' W 080°04'0 0.0
2020-Mar-22 08:28N 26°08' W 080°04'0 0.0
2020-Mar-22 05:59N 26°08' W 080°04'0 0.0
2020-Mar-22 04:59N 26°08' W 080°04'0 0.0
2020-Mar-22 03:28N 26°08' W 080°04'0 0.0
2020-Mar-22 02:28N 26°08' W 080°04'0 0.0
2020-Mar-21 23:28N 26°08' W 080°04'0 0.0
2020-Mar-21 22:28N 26°08' W 080°04'0 0.0
2020-Mar-21 20:29N 26°08' W 080°04'0 0.0
2020-Mar-21 19:26N 26°08' W 080°04'0 0.0
2020-Mar-21 17:59N 26°08' W 080°04'0 0.0
2020-Mar-21 17:26N 26°08' W 080°04'0 0.0
2020-Mar-21 16:29N 26°08' W 080°04'0 0.0
2020-Mar-21 13:29N 26°08' W 080°04'0 0.0
2020-Mar-21 11:28N 26°08' W 080°04'0 0.0
2020-Mar-21 09:28N 26°08' W 080°04'0 0.0
2020-Mar-21 02:58N 26°08' W 080°04'0 0.1
2020-Mar-21 02:25N 26°08' W 080°04'0 0.0
2020-Mar-21 01:58N 26°08' W 080°04'0 0.0
2020-Mar-21 01:29N 26°08' W 080°04'0 0.1
2020-Mar-21 00:55N 26°08' W 080°04'0 0.0
2020-Mar-20 23:58N 26°08' W 080°04'0 0.0
2020-Mar-20 22:58N 26°08' W 080°04'0 0.0
2020-Mar-20 21:26N 26°08' W 080°04'0 0.0
2020-Mar-20 20:58N 26°08' W 080°04'0 0.1
2020-Mar-20 20:29N 26°08' W 080°04'0 0.0
2020-Mar-20 19:29N 26°08' W 080°04'0 0.0
2020-Mar-20 18:59N 26°08' W 080°04'0 0.0
2020-Mar-20 16:58N 26°08' W 080°04'0 0.1
2020-Mar-20 15:59N 26°08' W 080°04'0 0.0
2020-Mar-20 14:26N 26°08' W 080°04'0 0.1
2020-Mar-20 13:59N 26°08' W 080°04'0 0.0
2020-Mar-20 12:56N 26°08' W 080°04'0 0.0
2020-Mar-20 10:59N 26°08' W 080°04'0 0.0
2020-Mar-20 08:59N 26°08' W 080°04'0 0.2
2020-Mar-20 08:29N 26°08' W 080°04'0 0.0
2020-Mar-20 05:58N 26°08' W 080°04'0 0.2
2020-Mar-20 05:26N 26°08' W 080°04'0 0.0
2020-Mar-20 02:59N 26°08' W 080°04'0 0.1
2020-Mar-20 02:29N 26°08' W 080°04'0 0.0
2020-Mar-19 23:59N 26°08' W 080°04'0 0.0
2020-Mar-19 22:59N 26°08' W 080°04'0 0.1
2020-Mar-19 22:29N 26°08' W 080°04'0 0.0
2020-Mar-19 19:58N 26°08' W 080°04'0 0.0
2020-Mar-19 19:28N 26°08' W 080°04'0 0.0
2020-Mar-19 18:25N 26°08' W 080°04'0 0.0
2020-Mar-19 16:28N 26°08' W 080°04'0 0.0
2020-Mar-19 14:28N 26°08' W 080°04'0 0.0
2020-Mar-19 13:58N 26°08' W 080°04'0 0.0
2020-Mar-19 13:28N 26°08' W 080°04'  
Track history (hours):
 
Tides and Currents Weather Stations Pressure Air Temp Water Temp Dewpoint Dewpoint Depression Visibility Wind Speed Wind Dir Waves Ship Positions

Viking Sky

Last reported at 2020-Mar-29 13:26 UTC. Time now 2020-Mar-29 14:28 UTC.
Position N 26°08' W 080°04'.

Length 228 m; draft 6.7 m.

Type: Passenger vessel. MMSI: 259186000.

Date/timePositionNaut miles runAvg speedWind from/ knotsBaromVisibWave heightAir tempDewpointWater temp
2020-Mar-29 13:26N 26°08' W 080°04'0 0.0
2020-Mar-29 12:56N 26°08' W 080°04'0 0.0
2020-Mar-29 12:26N 26°08' W 080°04'0 0.0
2020-Mar-29 11:29N 26°08' W 080°04'0 0.0
2020-Mar-29 08:59N 26°08' W 080°04'0 0.0
2020-Mar-29 03:26N 26°08' W 080°04'0 0.0
2020-Mar-29 02:29N 26°08' W 080°04'0 0.0
2020-Mar-28 23:59N 26°08' W 080°04'0 0.0
2020-Mar-28 23:29N 26°08' W 080°04'0 0.0
2020-Mar-28 20:59N 26°08' W 080°04'0 0.0
2020-Mar-28 19:29N 26°08' W 080°04'0 0.0
2020-Mar-28 15:29N 26°08' W 080°04'0 0.0
2020-Mar-28 12:29N 26°08' W 080°04'0 0.0
2020-Mar-28 11:59N 26°08' W 080°04'0 0.0
2020-Mar-28 11:29N 26°08' W 080°04'0 0.0
2020-Mar-28 08:29N 26°08' W 080°04'0 0.0
2020-Mar-28 06:29N 26°08' W 080°04'0 0.0
2020-Mar-28 05:59N 26°08' W 080°04'0 0.0
2020-Mar-28 02:59N 26°08' W 080°04'0 0.0
2020-Mar-28 02:29N 26°08' W 080°04'0 0.0
2020-Mar-28 01:59N 26°08' W 080°04'0 0.0
2020-Mar-28 00:59N 26°08' W 080°04'0 0.0
2020-Mar-27 22:29N 26°08' W 080°04'0 0.0
2020-Mar-27 21:29N 26°08' W 080°04'0 0.0
2020-Mar-27 16:59N 26°08' W 080°04'0 0.0
2020-Mar-27 16:29N 26°08' W 080°04'0 0.0
2020-Mar-27 15:59N 26°08' W 080°04'0 0.0
2020-Mar-27 14:59N 26°08' W 080°04'0 0.0
2020-Mar-27 13:29N 26°08' W 080°04'0 0.0
2020-Mar-27 12:26N 26°08' W 080°04'0 0.0
2020-Mar-27 11:59N 26°08' W 080°04'0 0.0
2020-Mar-27 10:29N 26°08' W 080°04'0 0.0
2020-Mar-27 09:53N 26°08' W 080°04'0 0.0
2020-Mar-27 07:59N 26°08' W 080°04'0 0.0
2020-Mar-27 05:59N 26°08' W 080°04'0 0.0
2020-Mar-27 03:29N 26°08' W 080°04'0 0.0
2020-Mar-26 21:29N 26°08' W 080°04'0 0.0
2020-Mar-26 20:53N 26°08' W 080°04'0 0.0
2020-Mar-26 17:59N 26°08' W 080°04'0 0.0
2020-Mar-26 17:29N 26°08' W 080°04'0 0.0
2020-Mar-26 14:59N 26°08' W 080°04'0 0.0
2020-Mar-26 13:29N 26°08' W 080°04'0 0.0
2020-Mar-26 10:59N 26°08' W 080°04'0 0.0
2020-Mar-26 09:59N 26°08' W 080°04'0 0.1
2020-Mar-26 09:29N 26°08' W 080°04'0 0.0
2020-Mar-26 07:59N 26°08' W 080°04'0 0.1
2020-Mar-26 07:29N 26°08' W 080°04'0 0.2
2020-Mar-26 06:56N 26°08' W 080°04'0 0.2
2020-Mar-26 06:29N 26°08' W 080°04'0 0.1
2020-Mar-26 05:59N 26°08' W 080°04'0 0.0
2020-Mar-26 05:29N 26°08' W 080°04'0 0.0
2020-Mar-26 04:29N 26°08' W 080°04'0 0.0
2020-Mar-26 03:29N 26°08' W 080°04'0 0.0
2020-Mar-25 22:59N 26°08' W 080°04'0 0.0
2020-Mar-25 20:26N 26°08' W 080°04'0 0.0
2020-Mar-25 15:29N 26°08' W 080°04'0 0.0
2020-Mar-25 13:26N 26°08' W 080°04'0 0.0
2020-Mar-25 12:59N 26°08' W 080°04'0 0.0
2020-Mar-25 10:29N 26°08' W 080°04'0 0.0
2020-Mar-25 08:29N 26°08' W 080°04'0 0.0
2020-Mar-25 07:59N 26°08' W 080°04'0 0.0
2020-Mar-25 05:29N 26°08' W 080°04'0 0.0
2020-Mar-25 01:29N 26°08' W 080°04'0 0.1
2020-Mar-25 00:59N 26°08' W 080°04'0 0.1
2020-Mar-25 00:29N 26°08' W 080°04'0 0.0
2020-Mar-24 22:56N 26°08' W 080°04'0 0.0
2020-Mar-24 21:29N 26°08' W 080°04'0 0.0
2020-Mar-24 19:59N 26°08' W 080°04'0 0.0
2020-Mar-24 19:29N 26°08' W 080°04'0 0.1
2020-Mar-24 18:59N 26°08' W 080°04'0 0.0
2020-Mar-24 17:30N 26°08' W 080°04'2 3.7
2020-Mar-24 17:00N 26°08' W 080°02'13 8.4
2020-Mar-24 15:30N 26°10' W 079°48'6 3.8
2020-Mar-24 14:00N 26°06' W 079°52'612.1
2020-Mar-24 13:30N 26°06' W 079°59'510.8
2020-Mar-24 13:01N 26°06' W 080°05'2 0.6
2020-Mar-24 10:00N 26°05' W 080°07'0 0.0
2020-Mar-24 08:30N 26°05' W 080°07'0 0.0
2020-Mar-24 07:54N 26°05' W 080°07'0 0.0
2020-Mar-24 07:30N 26°05' W 080°07'0 0.0
2020-Mar-24 05:24N 26°05' W 080°07'0 0.0
2020-Mar-24 04:24N 26°05' W 080°07'0 0.0
2020-Mar-24 01:30N 26°05' W 080°07'0 0.0
2020-Mar-24 00:30N 26°05' W 080°07'0 0.0
2020-Mar-23 23:30N 26°05' W 080°07'0 0.0
2020-Mar-23 21:00N 26°05' W 080°07'0 0.0
2020-Mar-23 19:30N 26°05' W 080°07'0 0.0
2020-Mar-23 13:27N 26°05' W 080°07'0 0.0
2020-Mar-23 12:57N 26°05' W 080°07'1 0.4
2020-Mar-23 11:30N 26°06' W 080°07'4 9.0
2020-Mar-23 11:01N 26°06' W 080°02'15 9.9
2020-Mar-23 09:30N 25°60' W 079°47'2013.2
2020-Mar-23 08:00N 25°40' W 079°50'10 4.1
2020-Mar-23 05:30N 25°50' W 079°52'6 6.0
2020-Mar-23 04:30N 25°56' W 079°52'12 5.9
2020-Mar-23 02:30N 26°08' W 079°53'611.9
2020-Mar-23 02:00N 26°08' W 079°60'4 7.2
2020-Mar-23 01:29N 26°08' W 080°04'0 0.1
2020-Mar-22 23:50N 26°08' W 080°04'0 0.0
2020-Mar-22 22:26N 26°08' W 080°04'0 0.1
2020-Mar-22 21:59N 26°08' W 080°04'0 0.0
2020-Mar-22 19:59N 26°08' W 080°04'0 0.0
2020-Mar-22 19:22N 26°08' W 080°04'0 0.0
2020-Mar-22 18:25N 26°08' W 080°04'0 0.0
2020-Mar-22 17:29N 26°08' W 080°04'0 0.0
2020-Mar-22 15:58N 26°08' W 080°04'0 0.0
2020-Mar-22 11:59N 26°08' W 080°04'0 0.0
2020-Mar-22 08:28N 26°08' W 080°04'0 0.0
2020-Mar-22 05:59N 26°08' W 080°04'0 0.0
2020-Mar-22 04:59N 26°08' W 080°04'0 0.0
2020-Mar-22 03:28N 26°08' W 080°04'0 0.0
2020-Mar-22 02:28N 26°08' W 080°04'0 0.0
2020-Mar-21 23:28N 26°08' W 080°04'0 0.0
2020-Mar-21 22:28N 26°08' W 080°04'0 0.0
2020-Mar-21 20:29N 26°08' W 080°04'0 0.0
2020-Mar-21 19:26N 26°08' W 080°04'0 0.0
2020-Mar-21 17:59N 26°08' W 080°04'0 0.0
2020-Mar-21 17:26N 26°08' W 080°04'0 0.0
2020-Mar-21 16:29N 26°08' W 080°04'0 0.0
2020-Mar-21 13:29N 26°08' W 080°04'0 0.0
2020-Mar-21 11:28N 26°08' W 080°04'0 0.0
2020-Mar-21 09:28N 26°08' W 080°04'0 0.0
2020-Mar-21 02:58N 26°08' W 080°04'0 0.1
2020-Mar-21 02:25N 26°08' W 080°04'0 0.0
2020-Mar-21 01:58N 26°08' W 080°04'0 0.0
2020-Mar-21 01:29N 26°08' W 080°04'0 0.1
2020-Mar-21 00:55N 26°08' W 080°04'0 0.0
2020-Mar-20 23:58N 26°08' W 080°04'0 0.0
2020-Mar-20 22:58N 26°08' W 080°04'0 0.0
2020-Mar-20 21:26N 26°08' W 080°04'0 0.0
2020-Mar-20 20:58N 26°08' W 080°04'0 0.1
2020-Mar-20 20:29N 26°08' W 080°04'0 0.0
2020-Mar-20 19:29N 26°08' W 080°04'0 0.0
2020-Mar-20 18:59N 26°08' W 080°04'0 0.0
2020-Mar-20 16:58N 26°08' W 080°04'0 0.1
2020-Mar-20 15:59N 26°08' W 080°04'0 0.0
2020-Mar-20 14:26N 26°08' W 080°04'0 0.1
2020-Mar-20 13:59N 26°08' W 080°04'0 0.0
2020-Mar-20 12:56N 26°08' W 080°04'0 0.0
2020-Mar-20 10:59N 26°08' W 080°04'0 0.0
2020-Mar-20 08:59N 26°08' W 080°04'0 0.2
2020-Mar-20 08:29N 26°08' W 080°04'0 0.0
2020-Mar-20 05:58N 26°08' W 080°04'0 0.2
2020-Mar-20 05:26N 26°08' W 080°04'0 0.0
2020-Mar-20 02:59N 26°08' W 080°04'0 0.1
2020-Mar-20 02:29N 26°08' W 080°04'0 0.0
2020-Mar-19 23:59N 26°08' W 080°04'0 0.0
2020-Mar-19 22:59N 26°08' W 080°04'0 0.1
2020-Mar-19 22:29N 26°08' W 080°04'0 0.0
2020-Mar-19 19:58N 26°08' W 080°04'0 0.0
2020-Mar-19 19:28N 26°08' W 080°04'0 0.0
2020-Mar-19 18:25N 26°08' W 080°04'0 0.0
2020-Mar-19 16:28N 26°08' W 080°04'0 0.0
2020-Mar-19 14:28N 26°08' W 080°04'0 0.0
2020-Mar-19 13:58N 26°08' W 080°04'0 0.0
2020-Mar-19 13:28N 26°08' W 080°04'  

Dump ship's entire track history